Time;durP1;ratioP1;P1;durP2;ratioP2;P2;SDS_P1;SDS_P2;PMS_P1;PMS_P2;Temp;Humidity;BMP_temperature;BMP_pressure;BME280_temperature;BME280_humidity;BME280_pressure;Samples;Min_cycle;Max_cycle;Signal;HPM_P1;HPM_P2
2022/10/12 00:01:51;;;;;;;0.63;0.63;;;;;;;;;;5020385;28;20212;-63
2022/10/12 00:04:18;;;;;;;0.60;0.60;;;;;;;;;;5023424;28;20232;-64
2022/10/12 00:06:47;;;;;;;1.33;0.90;;;;;;;;;;5020269;28;20212;-64
2022/10/12 00:09:14;;;;;;;1.77;0.77;;;;;;;;;;5020433;28;20710;-63
2022/10/12 00:11:41;;;;;;;2.23;0.80;;;;;;;;;;5025347;28;20211;-63
2022/10/12 00:14:08;;;;;;;2.07;0.70;;;;;;;;;;5023252;28;20200;-63
2022/10/12 00:16:35;;;;;;;2.27;0.50;;;;;;;;;;5018724;28;20205;-63
2022/10/12 00:19:02;;;;;;;1.67;0.80;;;;;;;;;;5025290;28;20204;-63
2022/10/12 00:21:30;;;;;;;0.50;0.50;;;;;;;;;;5020769;28;20203;-65
2022/10/12 00:23:59;;;;;;;3.70;0.70;;;;;;;;;;5018479;28;20211;-64
2022/10/12 00:26:26;;;;;;;3.00;1.10;;;;;;;;;;5020634;28;20228;-65
2022/10/12 00:28:56;;;;;;;0.80;0.80;;;;;;;;;;5020520;28;20244;-65
2022/10/12 00:31:23;;;;;;;0.83;0.83;;;;;;;;;;5019983;28;20235;-63
2022/10/12 00:33:50;;;;;;;2.50;1.00;;;;;;;;;;5025597;28;20203;-63
2022/10/12 00:36:18;;;;;;;1.00;0.70;;;;;;;;;;5025780;28;20215;-63
2022/10/12 00:38:46;;;;;;;5.27;0.80;;;;;;;;;;5015280;28;20247;-63
2022/10/12 00:41:14;;;;;;;1.67;0.77;;;;;;;;;;5022690;28;20298;-62
2022/10/12 00:43:42;;;;;;;1.90;0.77;;;;;;;;;;5026477;28;20208;-63
2022/10/12 00:46:14;;;;;;;0.63;0.63;;;;;;;;;;5026177;28;20208;-63
2022/10/12 00:48:42;;;;;;;1.10;0.90;;;;;;;;;;5017077;28;20220;-63
2022/10/12 00:51:10;;;;;;;1.00;0.70;;;;;;;;;;5025722;28;20259;-64
2022/10/12 00:53:39;;;;;;;5.13;1.20;;;;;;;;;;5026372;28;20591;-63
2022/10/12 00:56:09;;;;;;;2.63;0.50;;;;;;;;;;5019322;28;20216;-63
2022/10/12 00:58:38;;;;;;;4.93;0.93;;;;;;;;;;5021515;28;20204;-63
2022/10/12 01:01:05;;;;;;;3.20;0.80;;;;;;;;;;5027292;28;20220;-63
2022/10/12 01:03:33;;;;;;;1.13;0.43;;;;;;;;;;5029783;28;20261;-63
2022/10/12 01:06:00;;;;;;;4.47;0.70;;;;;;;;;;5029677;28;20204;-63
2022/10/12 01:08:28;;;;;;;4.47;0.80;;;;;;;;;;5029998;28;20232;-63
2022/10/12 01:10:55;;;;;;;1.10;0.70;;;;;;;;;;5029767;28;20208;-63
2022/10/12 01:13:23;;;;;;;0.60;0.60;;;;;;;;;;5030338;28;20197;-63
2022/10/12 01:15:54;;;;;;;0.60;0.60;;;;;;;;;;5029612;28;20205;-64
2022/10/12 01:18:24;;;;;;;1.73;0.80;;;;;;;;;;5029655;28;20192;-63
2022/10/12 01:20:58;;;;;;;3.67;0.70;;;;;;;;;;5029860;28;20312;-64
2022/10/12 01:23:56;;;;;;;1.00;0.93;;;;;;;;;;5029886;28;20200;-63
2022/10/12 01:26:46;;;;;;;3.63;1.20;;;;;;;;;;5026508;28;20233;-63
2022/10/12 01:29:23;;;;;;;1.90;0.70;;;;;;;;;;5014419;28;20241;-63
2022/10/12 01:31:53;;;;;;;0.63;0.63;;;;;;;;;;5029266;28;20208;-63
2022/10/12 01:34:22;;;;;;;5.20;0.83;;;;;;;;;;5029665;28;20203;-63
2022/10/12 01:36:53;;;;;;;1.37;0.73;;;;;;;;;;5025245;28;20853;-63
2022/10/12 01:39:23;;;;;;;0.57;0.57;;;;;;;;;;5029303;28;20204;-63
2022/10/12 01:41:53;;;;;;;0.70;0.60;;;;;;;;;;5028451;28;20780;-63
2022/10/12 01:44:21;;;;;;;3.77;0.73;;;;;;;;;;5028294;28;20216;-63
2022/10/12 01:46:48;;;;;;;0.70;0.70;;;;;;;;;;5027604;28;20208;-64
2022/10/12 01:49:19;;;;;;;2.73;0.70;;;;;;;;;;5029206;28;20323;-64
2022/10/12 01:51:59;;;;;;;3.17;0.80;;;;;;;;;;5028561;28;20278;-64
2022/10/12 01:54:29;;;;;;;1.23;1.00;;;;;;;;;;5028948;28;20228;-63
2022/10/12 01:57:00;;;;;;;1.33;1.00;;;;;;;;;;5028774;28;20627;-63
2022/10/12 01:59:32;;;;;;;1.13;0.80;;;;;;;;;;5026836;28;20204;-64
2022/10/12 02:02:01;;;;;;;2.73;1.27;;;;;;;;;;5028697;28;20655;-63
2022/10/12 02:04:33;;;;;;;0.67;0.57;;;;;;;;;;5029081;28;20620;-64
2022/10/12 02:07:01;;;;;;;2.93;0.60;;;;;;;;;;5029530;28;20204;-63
2022/10/12 02:09:29;;;;;;;1.03;0.83;;;;;;;;;;5029349;28;20225;-64
2022/10/12 02:11:58;;;;;;;4.10;0.83;;;;;;;;;;5028461;28;20216;-63
2022/10/12 02:14:28;;;;;;;1.40;0.90;;;;;;;;;;5028898;28;20204;-63
2022/10/12 02:16:56;;;;;;;1.07;0.80;;;;;;;;;;5028755;28;20217;-64
2022/10/12 02:19:26;;;;;;;1.30;0.83;;;;;;;;;;5028485;28;20204;-63
2022/10/12 02:21:56;;;;;;;4.37;1.27;;;;;;;;;;5028742;28;20204;-64
2022/10/12 02:24:24;;;;;;;1.20;0.97;;;;;;;;;;5028939;28;20657;-64
2022/10/12 02:26:53;;;;;;;1.60;0.87;;;;;;;;;;5027243;28;20243;-63
2022/10/12 02:29:22;;;;;;;0.90;0.63;;;;;;;;;;5028575;28;20324;-63
2022/10/12 02:31:53;;;;;;;2.10;1.13;;;;;;;;;;5028417;28;20215;-64
2022/10/12 02:34:22;;;;;;;2.30;1.00;;;;;;;;;;5027215;28;20220;-64
2022/10/12 02:36:52;;;;;;;2.03;0.70;;;;;;;;;;5027967;28;20212;-64
2022/10/12 02:39:23;;;;;;;1.53;0.70;;;;;;;;;;5026671;28;20215;-64
2022/10/12 02:41:51;;;;;;;3.17;1.10;;;;;;;;;;5027301;28;20200;-64
2022/10/12 02:44:22;;;;;;;5.10;1.10;;;;;;;;;;5027705;28;20764;-64
2022/10/12 02:46:50;;;;;;;3.30;0.73;;;;;;;;;;5028223;28;20204;-63
2022/10/12 02:49:18;;;;;;;3.60;0.80;;;;;;;;;;5028517;28;20235;-64
2022/10/12 02:51:45;;;;;;;3.43;1.00;;;;;;;;;;5028160;28;21446;-63
2022/10/12 02:54:13;;;;;;;0.70;0.70;;;;;;;;;;5026438;28;20205;-63
2022/10/12 02:56:44;;;;;;;3.77;0.80;;;;;;;;;;5027889;28;20216;-64
2022/10/12 02:59:12;;;;;;;1.67;1.00;;;;;;;;;;5028180;28;20205;-64
2022/10/12 03:01:39;;;;;;;3.30;1.00;;;;;;;;;;5027550;28;20216;-63
2022/10/12 03:04:07;;;;;;;0.80;0.80;;;;;;;;;;5025526;28;20231;-63
2022/10/12 03:06:34;;;;;;;5.27;1.00;;;;;;;;;;5026591;28;20765;-63
2022/10/12 03:09:01;;;;;;;0.90;0.90;;;;;;;;;;5027647;28;20692;-63
2022/10/12 03:11:28;;;;;;;1.97;0.67;;;;;;;;;;5027506;28;20242;-64
2022/10/12 03:13:57;;;;;;;1.13;0.90;;;;;;;;;;5027178;28;20208;-63
2022/10/12 03:16:24;;;;;;;2.97;0.83;;;;;;;;;;5026708;28;20667;-63
2022/10/12 03:18:51;;;;;;;10.30;1.37;;;;;;;;;;5026485;28;20200;-63
2022/10/12 03:21:18;;;;;;;1.80;1.23;;;;;;;;;;5027266;28;20211;-64
2022/10/12 03:23:45;;;;;;;0.60;0.60;;;;;;;;;;5026569;28;20205;-64
2022/10/12 03:26:13;;;;;;;4.53;0.93;;;;;;;;;;5026172;28;20213;-64
2022/10/12 03:28:40;;;;;;;0.83;0.63;;;;;;;;;;5023018;28;20702;-64
2022/10/12 03:31:17;;;;;;;1.87;0.97;;;;;;;;;;5026278;28;20216;-63
2022/10/12 03:33:44;;;;;;;1.00;0.90;;;;;;;;;;5026984;28;20211;-64
2022/10/12 03:36:11;;;;;;;0.80;0.63;;;;;;;;;;5027201;28;20204;-64
2022/10/12 03:38:38;;;;;;;1.00;1.00;;;;;;;;;;5026428;28;20207;-63
2022/10/12 03:41:05;;;;;;;3.43;1.60;;;;;;;;;;5026467;28;20223;-64
2022/10/12 03:43:32;;;;;;;4.80;1.00;;;;;;;;;;5026289;28;20214;-64
2022/10/12 03:45:59;;;;;;;3.40;1.40;;;;;;;;;;5025872;28;20297;-64
2022/10/12 03:48:28;;;;;;;0.67;0.67;;;;;;;;;;5022682;28;20227;-64
2022/10/12 03:50:55;;;;;;;3.13;0.80;;;;;;;;;;5027386;28;20223;-64
2022/10/12 03:53:22;;;;;;;6.17;0.97;;;;;;;;;;5026938;28;20208;-63
2022/10/12 03:55:50;;;;;;;1.73;0.87;;;;;;;;;;5026711;28;20204;-63
2022/10/12 03:58:17;;;;;;;3.30;0.87;;;;;;;;;;5026807;28;20204;-63
2022/10/12 04:00:44;;;;;;;0.70;0.70;;;;;;;;;;5026436;28;20284;-63
2022/10/12 04:03:11;;;;;;;1.10;0.97;;;;;;;;;;5026979;28;20243;-63
2022/10/12 04:05:40;;;;;;;0.70;0.70;;;;;;;;;;5027502;28;20215;-64
2022/10/12 04:08:08;;;;;;;0.67;0.60;;;;;;;;;;5026635;28;20303;-64
2022/10/12 04:10:35;;;;;;;0.90;0.80;;;;;;;;;;5025977;28;20216;-63
2022/10/12 04:13:02;;;;;;;8.43;1.40;;;;;;;;;;5026421;28;20200;-63
2022/10/12 04:15:29;;;;;;;1.40;0.70;;;;;;;;;;5026954;28;20258;-63
2022/10/12 04:17:56;;;;;;;1.03;0.93;;;;;;;;;;5025829;28;20222;-64
2022/10/12 04:20:23;;;;;;;1.27;0.97;;;;;;;;;;5027104;28;20903;-64
2022/10/12 04:22:52;;;;;;;2.80;0.87;;;;;;;;;;5025552;28;20211;-64
2022/10/12 04:25:19;;;;;;;1.43;1.07;;;;;;;;;;5026966;28;20205;-63
2022/10/12 04:27:46;;;;;;;1.40;1.17;;;;;;;;;;5026834;28;20236;-63
2022/10/12 04:30:13;;;;;;;1.03;0.80;;;;;;;;;;5027122;28;20216;-63
2022/10/12 04:32:40;;;;;;;0.70;0.70;;;;;;;;;;5026779;28;20200;-63
2022/10/12 04:35:07;;;;;;;8.07;1.30;;;;;;;;;;5027222;28;20211;-64
2022/10/12 04:37:34;;;;;;;2.00;1.53;;;;;;;;;;5029487;28;20212;-63
2022/10/12 04:40:03;;;;;;;0.90;0.60;;;;;;;;;;5030634;28;20204;-63
2022/10/12 04:42:30;;;;;;;1.23;1.07;;;;;;;;;;5030616;28;20266;-63
2022/10/12 04:44:57;;;;;;;1.40;0.80;;;;;;;;;;5031097;28;20317;-63
2022/10/12 04:47:30;;;;;;;0.80;0.80;;;;;;;;;;5030799;28;20196;-63
2022/10/12 04:49:57;;;;;;;2.23;1.30;;;;;;;;;;5027364;28;20282;-66
2022/10/12 04:52:24;;;;;;;3.00;1.20;;;;;;;;;;5030804;28;20212;-63
2022/10/12 04:54:51;;;;;;;1.00;1.00;;;;;;;;;;5030905;28;20208;-63
2022/10/12 04:57:20;;;;;;;2.10;0.90;;;;;;;;;;5030031;28;20909;-64
2022/10/12 04:59:47;;;;;;;2.80;1.60;;;;;;;;;;5030056;28;20640;-63
2022/10/12 05:02:14;;;;;;;1.40;1.10;;;;;;;;;;5028188;28;20701;-63
2022/10/12 05:04:41;;;;;;;1.13;0.70;;;;;;;;;;5029921;28;20733;-63
2022/10/12 05:07:08;;;;;;;1.07;1.07;;;;;;;;;;5029591;28;20348;-63
2022/10/12 05:09:35;;;;;;;2.43;1.07;;;;;;;;;;5030257;28;20236;-65
2022/10/12 05:12:02;;;;;;;1.77;1.50;;;;;;;;;;5030064;28;20208;-64
2022/10/12 05:14:30;;;;;;;2.93;1.70;;;;;;;;;;5029882;28;20686;-64
2022/10/12 05:16:57;;;;;;;1.40;1.30;;;;;;;;;;5029684;28;20200;-64
2022/10/12 05:19:24;;;;;;;1.37;1.27;;;;;;;;;;5030326;28;20212;-63
2022/10/12 05:21:53;;;;;;;2.53;1.00;;;;;;;;;;5028094;28;20208;-62
2022/10/12 05:24:20;;;;;;;2.13;2.00;;;;;;;;;;5029259;28;20206;-63
2022/10/12 05:26:47;;;;;;;3.63;1.50;;;;;;;;;;5027731;28;20303;-63
2022/10/12 05:29:14;;;;;;;3.23;1.20;;;;;;;;;;5027514;28;20228;-63
2022/10/12 05:31:43;;;;;;;1.90;1.80;;;;;;;;;;5029760;28;20207;-63
2022/10/12 05:34:10;;;;;;;2.90;1.50;;;;;;;;;;5029616;28;20208;-63
2022/10/12 05:36:37;;;;;;;3.20;1.93;;;;;;;;;;5029363;28;20208;-63
2022/10/12 05:39:04;;;;;;;3.60;1.57;;;;;;;;;;5029332;28;20204;-63
2022/10/12 05:41:31;;;;;;;1.50;1.40;;;;;;;;;;5025870;28;20208;-63
2022/10/12 05:43:58;;;;;;;1.07;1.07;;;;;;;;;;5028888;28;20589;-63
2022/10/12 05:46:25;;;;;;;2.00;1.37;;;;;;;;;;5029676;28;20225;-63
2022/10/12 05:48:54;;;;;;;4.27;1.47;;;;;;;;;;5029182;28;20217;-61
2022/10/12 05:51:21;;;;;;;1.60;1.30;;;;;;;;;;5029612;28;20207;-62
2022/10/12 05:53:48;;;;;;;1.27;1.27;;;;;;;;;;5029216;28;20212;-63
2022/10/12 05:56:15;;;;;;;3.87;1.50;;;;;;;;;;5029525;28;20212;-64
2022/10/12 05:58:42;;;;;;;1.60;1.53;;;;;;;;;;5029095;28;20299;-63
2022/10/12 06:01:10;;;;;;;2.17;1.87;;;;;;;;;;5010192;28;20220;-63
2022/10/12 06:03:37;;;;;;;1.10;1.10;;;;;;;;;;5010135;28;20247;-63
2022/10/12 06:06:06;;;;;;;8.27;1.63;;;;;;;;;;5029144;28;20218;-63
2022/10/12 06:08:34;;;;;;;4.57;1.47;;;;;;;;;;5029056;28;20208;-62
2022/10/12 06:11:01;;;;;;;1.97;1.33;;;;;;;;;;5029262;28;20215;-63
2022/10/12 06:13:28;;;;;;;4.93;1.57;;;;;;;;;;5029518;28;20212;-62
2022/10/12 06:15:55;;;;;;;1.43;1.13;;;;;;;;;;5029424;28;20208;-63
2022/10/12 06:18:22;;;;;;;2.63;1.60;;;;;;;;;;5028314;28;20204;-63
2022/10/12 06:20:51;;;;;;;4.97;1.50;;;;;;;;;;5026964;28;20211;-63
2022/10/12 06:23:20;;;;;;;3.83;1.13;;;;;;;;;;5028714;28;20212;-63
2022/10/12 06:25:47;;;;;;;11.07;2.90;;;;;;;;;;5027989;28;20675;-63
2022/10/12 06:28:14;;;;;;;2.00;1.90;;;;;;;;;;5028256;28;20275;-64
2022/10/12 06:30:42;;;;;;;1.50;1.40;;;;;;;;;;5028825;28;20231;-63
2022/10/12 06:33:09;;;;;;;1.27;1.17;;;;;;;;;;5028068;28;20220;-63
2022/10/12 06:35:36;;;;;;;4.90;1.67;;;;;;;;;;5028568;28;20882;-63
2022/10/12 06:38:03;;;;;;;6.67;1.80;;;;;;;;;;5028471;28;20575;-63
2022/10/12 06:40:31;;;;;;;3.63;1.53;;;;;;;;;;5028406;28;20215;-62
2022/10/12 06:43:01;;;;;;;5.40;1.53;;;;;;;;;;5028493;28;20220;-63
2022/10/12 06:45:28;;;;;;;2.93;1.47;;;;;;;;;;5028723;28;20243;-64
2022/10/12 06:47:55;;;;;;;3.63;1.90;;;;;;;;;;5028450;28;20212;-64
2022/10/12 06:50:22;;;;;;;3.33;1.60;;;;;;;;;;5027776;28;20228;-62
2022/10/12 06:52:49;;;;;;;1.93;1.73;;;;;;;;;;5028043;28;20228;-62
2022/10/12 06:55:17;;;;;;;1.73;1.63;;;;;;;;;;5027958;28;20218;-63
2022/10/12 06:57:45;;;;;;;2.13;1.63;;;;;;;;;;5028046;28;20212;-63
2022/10/12 07:00:13;;;;;;;5.20;2.00;;;;;;;;;;5027153;28;20212;-63
2022/10/12 07:02:40;;;;;;;1.37;1.27;;;;;;;;;;5027985;28;20216;-63
2022/10/12 07:05:08;;;;;;;2.03;1.57;;;;;;;;;;5027621;28;20228;-63
2022/10/12 07:07:36;;;;;;;3.07;1.73;;;;;;;;;;5027136;28;20822;-63
2022/10/12 07:10:04;;;;;;;2.40;1.40;;;;;;;;;;5027479;28;20220;-63
2022/10/12 07:12:31;;;;;;;2.70;1.40;;;;;;;;;;5027580;28;20740;-63
2022/10/12 07:14:59;;;;;;;1.47;1.37;;;;;;;;;;5027844;28;20215;-63
2022/10/12 07:17:26;;;;;;;0.87;0.87;;;;;;;;;;5027043;28;20203;-63
2022/10/12 07:19:53;;;;;;;4.17;1.07;;;;;;;;;;5027456;28;20200;-64
2022/10/12 07:22:20;;;;;;;1.47;1.43;;;;;;;;;;5027380;28;20220;-61
2022/10/12 07:24:47;;;;;;;1.30;1.20;;;;;;;;;;5027584;28;20216;-60
2022/10/12 07:27:14;;;;;;;2.97;1.20;;;;;;;;;;5027252;28;20244;-61
2022/10/12 07:29:41;;;;;;;3.13;1.37;;;;;;;;;;5027453;28;20228;-61
2022/10/12 07:32:10;;;;;;;1.40;1.30;;;;;;;;;;5027466;28;20216;-61
2022/10/12 07:34:37;;;;;;;2.83;1.50;;;;;;;;;;5027096;28;20216;-61
2022/10/12 07:37:04;;;;;;;2.43;1.47;;;;;;;;;;5026464;28;20208;-61
2022/10/12 07:39:31;;;;;;;1.43;1.43;;;;;;;;;;5027076;28;20220;-61
2022/10/12 07:41:58;;;;;;;2.00;1.50;;;;;;;;;;5026899;28;20208;-61
2022/10/12 07:44:25;;;;;;;3.23;1.90;;;;;;;;;;5026601;28;20295;-60
2022/10/12 07:46:52;;;;;;;10.97;1.70;;;;;;;;;;5026809;28;20216;-61
2022/10/12 07:49:21;;;;;;;6.53;1.60;;;;;;;;;;5024625;28;20208;-60
2022/10/12 07:51:48;;;;;;;1.63;1.57;;;;;;;;;;5024614;28;20675;-61
2022/10/12 07:54:15;;;;;;;5.27;1.60;;;;;;;;;;5026254;28;20682;-61
2022/10/12 07:56:42;;;;;;;4.10;1.63;;;;;;;;;;5026607;28;20216;-60
2022/10/12 07:59:09;;;;;;;4.53;1.33;;;;;;;;;;5025902;28;20219;-61
2022/10/12 08:01:36;;;;;;;2.63;2.13;;;;;;;;;;5013755;28;20209;-62
2022/10/12 08:04:03;;;;;;;5.60;1.70;;;;;;;;;;5024145;28;20236;-61
2022/10/12 08:06:33;;;;;;;2.13;1.77;;;;;;;;;;5025377;28;20224;-61
2022/10/12 08:09:00;;;;;;;1.07;0.97;;;;;;;;;;5025904;28;20697;-62
2022/10/12 08:11:27;;;;;;;1.50;1.40;;;;;;;;;;5026535;28;20311;-60
2022/10/12 08:13:55;;;;;;;3.70;1.33;;;;;;;;;;5026028;28;20212;-59
2022/10/12 08:16:22;;;;;;;1.90;1.80;;;;;;;;;;5026514;28;20270;-61
2022/10/12 08:18:49;;;;;;;2.87;1.37;;;;;;;;;;5026050;28;20215;-61
2022/10/12 08:21:17;;;;;;;3.10;1.70;;;;;;;;;;5024440;28;20207;-60
2022/10/12 08:23:46;;;;;;;6.80;1.50;;;;;;;;;;5025113;28;20218;-60
2022/10/12 08:26:13;;;;;;;2.63;1.63;;;;;;;;;;5026080;28;20212;-61
2022/10/12 08:28:40;;;;;;;2.37;1.80;;;;;;;;;;5025694;28;20208;-61
2022/10/12 08:31:08;;;;;;;9.27;1.60;;;;;;;;;;5025654;28;20224;-60
2022/10/12 08:33:35;;;;;;;1.57;1.13;;;;;;;;;;5026541;28;20745;-61
2022/10/12 08:36:03;;;;;;;1.47;1.37;;;;;;;;;;5025581;28;20209;-61
2022/10/12 08:38:30;;;;;;;2.77;1.70;;;;;;;;;;5026291;28;20212;-61
2022/10/12 08:41:03;;;;;;;3.27;1.80;;;;;;;;;;5026514;28;20274;-60
2022/10/12 08:43:34;;;;;;;2.63;2.03;;;;;;;;;;5017627;28;20217;-60
2022/10/12 08:46:03;;;;;;;2.07;1.70;;;;;;;;;;5026696;28;20216;-60
2022/10/12 08:48:33;;;;;;;3.53;1.73;;;;;;;;;;5026538;28;20212;-60
2022/10/12 08:51:02;;;;;;;3.10;1.87;;;;;;;;;;5026541;28;20228;-61
2022/10/12 08:53:31;;;;;;;3.50;1.73;;;;;;;;;;5026466;28;20209;-61
2022/10/12 08:56:00;;;;;;;2.40;1.77;;;;;;;;;;5026543;28;20228;-60
2022/10/12 08:58:31;;;;;;;2.93;1.67;;;;;;;;;;5025851;28;20266;-60
2022/10/12 09:01:02;;;;;;;1.53;1.43;;;;;;;;;;5017081;28;20219;-60
2022/10/12 09:03:36;;;;;;;5.27;2.23;;;;;;;;;;5024503;28;20319;-60
2022/10/12 09:06:07;;;;;;;3.60;2.00;;;;;;;;;;5025540;28;20238;-59
2022/10/12 09:08:41;;;;;;;3.00;2.00;;;;;;;;;;5018525;28;20635;-59
2022/10/12 09:11:16;;;;;;;1.70;1.60;;;;;;;;;;5025445;28;20327;-61
2022/10/12 09:13:47;;;;;;;2.60;1.43;;;;;;;;;;5025266;28;20212;-64
2022/10/12 09:16:20;;;;;;;5.40;2.37;;;;;;;;;;5026141;28;20220;-63
2022/10/12 09:18:49;;;;;;;1.90;1.80;;;;;;;;;;5025266;28;20635;-61
2022/10/12 09:21:18;;;;;;;2.77;2.30;;;;;;;;;;5025809;28;20203;-61
2022/10/12 09:23:45;;;;;;;2.10;1.73;;;;;;;;;;5029228;28;20664;-64
2022/10/12 09:26:16;;;;;;;2.10;1.90;;;;;;;;;;5029895;28;20212;-60
2022/10/12 09:28:45;;;;;;;2.20;2.10;;;;;;;;;;5029689;28;20592;-60
2022/10/12 09:31:35;;;;;;;2.27;1.70;;;;;;;;;;5029454;28;20231;-60
2022/10/12 09:34:04;;;;;;;3.53;1.75;;;;;;;;;;5014214;28;20200;-61
2022/10/12 09:36:34;;;;;;;1.92;1.80;;;;;;;;;;5029255;28;20586;-62
2022/10/12 09:39:03;;;;;;;1.90;1.80;;;;;;;;;;5029111;28;20201;-60
2022/10/12 09:41:33;;;;;;;2.53;1.83;;;;;;;;;;5029480;28;20216;-62
2022/10/12 09:44:01;;;;;;;6.70;1.73;;;;;;;;;;5029626;28;20231;-61
2022/10/12 09:46:32;;;;;;;4.20;1.65;;;;;;;;;;5029197;28;20223;-69
2022/10/12 09:49:00;;;;;;;2.13;1.83;;;;;;;;;;5028776;28;20263;-63
2022/10/12 09:51:28;;;;;;;6.03;2.05;;;;;;;;;;5028612;28;20244;-63
2022/10/12 09:53:57;;;;;;;2.10;1.67;;;;;;;;;;5029426;28;20216;-60
2022/10/12 09:56:28;;;;;;;2.92;2.00;;;;;;;;;;5028287;28;20209;-60
2022/10/12 09:58:59;;;;;;;3.35;1.55;;;;;;;;;;5028973;28;20278;-60
2022/10/12 10:01:27;;;;;;;2.45;1.70;;;;;;;;;;5028236;28;20203;-60
2022/10/12 10:04:07;;;;;;;3.10;2.13;;;;;;;;;;5028730;28;20246;-60
2022/10/12 10:06:34;;;;;;;4.55;2.10;;;;;;;;;;5028951;28;20640;-59
2022/10/12 10:09:02;;;;;;;1.88;1.65;;;;;;;;;;5028073;28;20220;-60
2022/10/12 10:11:30;;;;;;;6.93;1.75;;;;;;;;;;5028522;28;20224;-60
2022/10/12 10:13:59;;;;;;;2.17;1.73;;;;;;;;;;5029136;28;20621;-60
2022/10/12 10:16:27;;;;;;;2.03;1.73;;;;;;;;;;5034800;28;20204;-60
2022/10/12 10:18:58;;;;;;;2.30;1.90;;;;;;;;;;5038200;28;20208;-60
2022/10/12 10:21:26;;;;;;;1.90;1.80;;;;;;;;;;5028426;28;20303;-60
2022/10/12 10:23:54;;;;;;;1.50;1.38;;;;;;;;;;5027519;28;20211;-59
2022/10/12 10:26:22;;;;;;;2.88;1.52;;;;;;;;;;5008524;28;20988;-59
2022/10/12 10:28:50;;;;;;;2.28;1.67;;;;;;;;;;5008976;28;20215;-60
2022/10/12 10:31:22;;;;;;;2.88;2.13;;;;;;;;;;5019510;28;20228;-62
2022/10/12 10:34:03;;;;;;;2.08;1.95;;;;;;;;;;5027485;28;20208;-60
2022/10/12 10:36:31;;;;;;;2.60;1.77;;;;;;;;;;5027706;28;20216;-60
2022/10/12 10:39:01;;;;;;;1.98;1.80;;;;;;;;;;5028594;28;20212;-59
2022/10/12 10:41:31;;;;;;;4.40;1.73;;;;;;;;;;5027979;28;20651;-59
2022/10/12 10:43:58;;;;;;;1.90;1.80;;;;;;;;;;5028362;28;20215;-60
2022/10/12 10:46:29;;;;;;;2.47;1.98;;;;;;;;;;5026700;28;20219;-59
2022/10/12 10:49:00;;;;;;;2.22;2.00;;;;;;;;;;5027714;28;20208;-60
2022/10/12 10:51:40;;;;;;;1.90;1.80;;;;;;;;;;5027921;28;20428;-60
2022/10/12 10:54:14;;;;;;;2.53;1.75;;;;;;;;;;5027752;28;20560;-60
2022/10/12 10:56:41;;;;;;;3.50;2.13;;;;;;;;;;5028279;28;20667;-59
2022/10/12 10:59:16;;;;;;;2.00;1.67;;;;;;;;;;5027368;28;20208;-59
2022/10/12 11:01:51;;;;;;;1.60;1.50;;;;;;;;;;5027837;28;20207;-61
2022/10/12 11:04:19;;;;;;;1.50;1.50;;;;;;;;;;5027459;28;20223;-59
2022/10/12 11:06:48;;;;;;;2.90;2.05;;;;;;;;;;5027578;28;20204;-60
2022/10/12 11:09:17;;;;;;;4.72;2.55;;;;;;;;;;5027887;28;20654;-61
2022/10/12 11:11:46;;;;;;;1.90;1.80;;;;;;;;;;5026473;28;20235;-61
2022/10/12 11:14:15;;;;;;;7.38;2.22;;;;;;;;;;5025898;28;20208;-62
2022/10/12 11:16:46;;;;;;;2.85;2.30;;;;;;;;;;5026581;28;20201;-62
2022/10/12 11:19:21;;;;;;;2.67;2.47;;;;;;;;;;5027670;28;20208;-62
2022/10/12 11:21:49;;;;;;;2.30;2.20;;;;;;;;;;5027279;28;20681;-62
2022/10/12 11:24:18;;;;;;;2.40;1.92;;;;;;;;;;5017991;28;20207;-62
2022/10/12 11:26:46;;;;;;;2.17;2.08;;;;;;;;;;5025879;28;20235;-62
2022/10/12 11:29:16;;;;;;;7.10;2.63;;;;;;;;;;5026867;28;20200;-62
2022/10/12 11:31:46;;;;;;;2.95;2.75;;;;;;;;;;5026877;28;20235;-63
2022/10/12 11:34:16;;;;;;;3.67;2.67;;;;;;;;;;5026458;28;20825;-61
2022/10/12 11:36:49;;;;;;;3.00;2.80;;;;;;;;;;5026531;28;20212;-61
2022/10/12 11:39:18;;;;;;;3.05;2.75;;;;;;;;;;5026984;28;20218;-61
2022/10/12 11:41:46;;;;;;;2.88;2.67;;;;;;;;;;5026341;28;20212;-62
2022/10/12 11:44:16;;;;;;;3.60;3.00;;;;;;;;;;5025947;28;20200;-62
2022/10/12 11:46:55;;;;;;;3.30;3.00;;;;;;;;;;5025737;28;20208;-63
2022/10/12 11:49:26;;;;;;;2.90;2.70;;;;;;;;;;5021137;28;20365;-63
2022/10/12 11:51:56;;;;;;;7.53;3.20;;;;;;;;;;5026283;28;20239;-63
2022/10/12 11:54:28;;;;;;;4.45;3.42;;;;;;;;;;5026673;28;20208;-63
2022/10/12 11:56:56;;;;;;;3.47;3.17;;;;;;;;;;5016867;28;20219;-63
2022/10/12 11:59:27;;;;;;;3.17;2.97;;;;;;;;;;5023310;28;20215;-62
2022/10/12 12:01:59;;;;;;;3.33;2.97;;;;;;;;;;5023653;28;20212;-62
2022/10/12 12:04:28;;;;;;;3.58;3.28;;;;;;;;;;5027118;28;20577;-63
2022/10/12 12:06:58;;;;;;;3.03;2.83;;;;;;;;;;5026385;28;20227;-63
2022/10/12 12:09:33;;;;;;;4.05;2.95;;;;;;;;;;5026364;28;20662;-62
2022/10/12 12:12:11;;;;;;;2.33;2.30;;;;;;;;;;5026622;28;20232;-63
2022/10/12 12:14:45;;;;;;;3.83;3.17;;;;;;;;;;5026576;28;20642;-63
2022/10/12 12:17:21;;;;;;;3.22;2.92;;;;;;;;;;5026860;28;20234;-63
2022/10/12 12:19:49;;;;;;;3.20;3.08;;;;;;;;;;5026807;28;21011;-63
2022/10/12 12:22:27;;;;;;;4.00;3.25;;;;;;;;;;5026875;28;20266;-63
2022/10/12 12:24:56;;;;;;;3.08;2.85;;;;;;;;;;5008839;28;20223;-63
2022/10/12 12:27:24;;;;;;;3.05;2.75;;;;;;;;;;5006808;28;20248;-64
2022/10/12 12:29:52;;;;;;;3.17;2.53;;;;;;;;;;5022144;28;20234;-63
2022/10/12 12:32:19;;;;;;;3.80;2.63;;;;;;;;;;5016305;28;20236;-63
2022/10/12 12:34:51;;;;;;;3.10;2.90;;;;;;;;;;5020284;28;20220;-63
2022/10/12 12:37:20;;;;;;;6.97;2.70;;;;;;;;;;5026363;28;20219;-63
2022/10/12 12:39:52;;;;;;;4.05;2.83;;;;;;;;;;5026483;28;20227;-63
2022/10/12 12:42:22;;;;;;;2.63;2.53;;;;;;;;;;5026976;28;20211;-63
2022/10/12 12:44:49;;;;;;;9.18;3.13;;;;;;;;;;5012132;28;20212;-61
2022/10/12 12:47:19;;;;;;;4.03;2.60;;;;;;;;;;5007012;28;20212;-62
2022/10/12 12:49:47;;;;;;;7.82;3.05;;;;;;;;;;5006701;28;20213;-62
2022/10/12 12:52:18;;;;;;;3.47;2.53;;;;;;;;;;5006896;28;20232;-63
2022/10/12 12:54:51;;;;;;;3.30;2.63;;;;;;;;;;5006701;28;20216;-63
2022/10/12 12:57:27;;;;;;;2.83;2.63;;;;;;;;;;5007841;28;20224;-64
2022/10/12 13:00:07;;;;;;;3.05;2.88;;;;;;;;;;5029948;28;20575;-64
2022/10/12 13:02:43;;;;;;;3.05;2.80;;;;;;;;;;5030002;28;20215;-64
2022/10/12 13:05:24;;;;;;;4.57;3.17;;;;;;;;;;5029813;28;20238;-64
2022/10/12 13:08:10;;;;;;;5.68;2.45;;;;;;;;;;5030076;28;20216;-64
2022/10/12 13:10:46;;;;;;;3.58;2.80;;;;;;;;;;5029661;28;20208;-62
2022/10/12 13:13:27;;;;;;;3.92;3.22;;;;;;;;;;5010159;28;20721;-62
2022/10/12 13:16:06;;;;;;;3.15;2.95;;;;;;;;;;5010277;28;20213;-62
2022/10/12 13:18:48;;;;;;;4.53;3.05;;;;;;;;;;5010048;28;20213;-64
2022/10/12 13:21:17;;;;;;;6.35;3.30;;;;;;;;;;5010099;28;20212;-62
2022/10/12 13:23:45;;;;;;;4.90;3.22;;;;;;;;;;5010118;28;20209;-61
2022/10/12 13:26:16;;;;;;;4.82;3.08;;;;;;;;;;5026393;28;20239;-64
2022/10/12 13:28:46;;;;;;;3.22;2.92;;;;;;;;;;5029658;28;20212;-64
2022/10/12 13:31:17;;;;;;;3.83;3.47;;;;;;;;;;5029547;28;20239;-62
2022/10/12 13:33:49;;;;;;;4.28;3.28;;;;;;;;;;5016559;28;20216;-64
2022/10/12 13:36:18;;;;;;;4.93;3.38;;;;;;;;;;5011293;28;20307;-61
2022/10/12 13:38:46;;;;;;;2.95;2.67;;;;;;;;;;5029315;28;20216;-59
2022/10/12 13:41:14;;;;;;;3.55;3.10;;;;;;;;;;5029370;28;20690;-58
2022/10/12 13:43:45;;;;;;;5.10;3.70;;;;;;;;;;5029285;28;20210;-58
2022/10/12 13:46:13;;;;;;;3.88;3.58;;;;;;;;;;5028900;28;20212;-58
2022/10/12 13:48:40;;;;;;;8.27;3.28;;;;;;;;;;5029254;28;20305;-58
2022/10/12 13:51:20;;;;;;;3.78;3.28;;;;;;;;;;5028958;28;20713;-58
2022/10/12 13:53:48;;;;;;;3.90;3.60;;;;;;;;;;5029272;28;20212;-59
2022/10/12 13:56:16;;;;;;;6.15;3.30;;;;;;;;;;5028999;28;20213;-58
2022/10/12 13:58:45;;;;;;;6.95;3.47;;;;;;;;;;5029122;28;20212;-58
2022/10/12 14:01:12;;;;;;;3.42;3.10;;;;;;;;;;5029120;28;20212;-58
2022/10/12 14:03:40;;;;;;;5.07;3.83;;;;;;;;;;5028837;28;20232;-58
2022/10/12 14:06:22;;;;;;;9.55;4.22;;;;;;;;;;5028606;28;20559;-58
2022/10/12 14:08:49;;;;;;;4.03;3.60;;;;;;;;;;5028552;28;20307;-58
2022/10/12 14:11:16;;;;;;;3.90;3.58;;;;;;;;;;5028765;28;20693;-58
2022/10/12 14:13:45;;;;;;;3.95;3.45;;;;;;;;;;5028618;28;20243;-58
2022/10/12 14:16:13;;;;;;;3.33;3.10;;;;;;;;;;5027819;28;20215;-58
2022/10/12 14:18:41;;;;;;;4.32;3.10;;;;;;;;;;5027011;28;20588;-59
2022/10/12 14:21:22;;;;;;;3.97;3.60;;;;;;;;;;5026769;28;20263;-68
2022/10/12 14:23:50;;;;;;;4.03;3.63;;;;;;;;;;5028306;28;20211;-59
2022/10/12 14:26:22;;;;;;;3.72;3.22;;;;;;;;;;5028030;28;20251;-60
2022/10/12 14:28:51;;;;;;;3.35;2.97;;;;;;;;;;5025531;28;20205;-59
2022/10/12 14:31:18;;;;;;;3.58;3.28;;;;;;;;;;5024485;28;20283;-59
2022/10/12 14:33:45;;;;;;;3.50;3.20;;;;;;;;;;5028080;28;20208;-59
2022/10/12 14:36:13;;;;;;;5.45;2.85;;;;;;;;;;5028100;28;20235;-60
2022/10/12 14:38:42;;;;;;;4.70;2.95;;;;;;;;;;5028189;28;20212;-60
2022/10/12 14:41:27;;;;;;;7.03;3.80;;;;;;;;;;5028059;28;20686;-61
2022/10/12 14:44:04;;;;;;;4.82;3.08;;;;;;;;;;5024011;28;20216;-59
2022/10/12 14:46:31;;;;;;;5.72;3.40;;;;;;;;;;5017709;28;20208;-60
2022/10/12 14:48:58;;;;;;;6.70;3.75;;;;;;;;;;5024188;28;20212;-61
2022/10/12 14:51:25;;;;;;;5.15;3.15;;;;;;;;;;5027491;28;20216;-61
2022/10/12 14:53:59;;;;;;;3.35;3.10;;;;;;;;;;5020589;28;20212;-60
2022/10/12 14:56:26;;;;;;;6.25;3.38;;;;;;;;;;5028107;28;20627;-61